createdAt,value
2018-04-08T00:00:30.723Z,52.98
2018-04-08T00:02:59.007Z,52.98
2018-04-08T00:05:27.278Z,52.54
2018-04-08T00:07:55.587Z,52.77
2018-04-08T00:10:23.906Z,52.64
2018-04-08T00:12:52.146Z,52.60
2018-04-08T00:15:20.494Z,53.14
2018-04-08T00:17:48.774Z,53.00
2018-04-08T00:20:17.394Z,52.94
2018-04-08T00:22:45.779Z,53.06
2018-04-08T00:25:14.064Z,53.28
2018-04-08T00:27:42.349Z,53.53
2018-04-08T00:30:10.635Z,53.61
2018-04-08T00:32:38.908Z,54.13
2018-04-08T00:35:07.212Z,54.07
2018-04-08T00:37:35.468Z,53.78
2018-04-08T00:40:03.754Z,54.21
2018-04-08T00:42:32.799Z,54.42
2018-04-08T00:45:01.096Z,54.61
2018-04-08T00:47:29.364Z,54.53
2018-04-08T00:49:57.654Z,54.62
2018-04-08T00:52:25.996Z,54.71
2018-04-08T00:54:54.276Z,54.55
2018-04-08T00:57:22.539Z,54.26
2018-04-08T00:59:50.827Z,54.44
2018-04-08T01:02:19.174Z,54.46
2018-04-08T01:04:48.388Z,54.50
2018-04-08T01:07:16.666Z,54.45
2018-04-08T01:09:44.940Z,54.53
2018-04-08T01:12:13.247Z,54.71
2018-04-08T01:14:41.540Z,55.13
2018-04-08T01:17:09.885Z,54.93
2018-04-08T01:19:38.179Z,55.01
2018-04-08T01:22:06.463Z,55.03
2018-04-08T01:24:34.788Z,55.08
2018-04-08T01:27:03.071Z,55.37
2018-04-08T01:29:31.347Z,55.47
2018-04-08T01:31:59.656Z,55.17
2018-04-08T01:34:27.935Z,55.16
2018-04-08T01:36:56.253Z,55.36
2018-04-08T01:39:25.049Z,55.49
2018-04-08T01:41:53.991Z,56.06
2018-04-08T01:44:22.290Z,56.08
2018-04-08T01:46:50.580Z,56.03
2018-04-08T01:49:18.840Z,55.92
2018-04-08T01:51:47.180Z,56.24
2018-04-08T01:54:15.499Z,56.50
2018-04-08T01:56:43.768Z,56.68
2018-04-08T01:59:12.054Z,56.92
2018-04-08T02:01:40.328Z,57.15
2018-04-08T02:04:08.645Z,56.99
2018-04-08T02:06:36.922Z,56.79
2018-04-08T02:09:06.112Z,56.75
2018-04-08T02:11:34.375Z,57.17
2018-04-08T02:14:02.655Z,57.33
2018-04-08T02:16:30.934Z,57.89
2018-04-08T02:18:59.228Z,58.46
2018-04-08T02:21:27.478Z,58.24
2018-04-08T02:23:55.778Z,58.37
2018-04-08T02:26:24.123Z,58.38
2018-04-08T02:28:52.369Z,58.17
2018-04-08T02:31:20.635Z,58.17
2018-04-08T02:33:48.916Z,58.83
2018-04-08T02:36:17.214Z,59.18
2018-04-08T02:38:45.510Z,58.44
2018-04-08T02:41:14.045Z,58.01
2018-04-08T02:43:42.325Z,57.95
2018-04-08T02:46:10.585Z,58.35
2018-04-08T02:48:38.868Z,58.71
2018-04-08T02:51:07.137Z,58.48
2018-04-08T02:53:35.464Z,58.74
2018-04-08T02:56:03.728Z,59.20
2018-04-08T02:58:32.078Z,59.41
2018-04-08T03:01:00.345Z,59.26
2018-04-08T03:03:28.604Z,59.40
2018-04-08T03:05:56.870Z,59.36
2018-04-08T03:08:25.136Z,59.35
2018-04-08T03:10:53.415Z,59.48
2018-04-08T03:13:21.682Z,59.45
2018-04-08T03:15:49.969Z,59.64
2018-04-08T03:18:18.263Z,59.77
2018-04-08T03:20:46.510Z,59.75
2018-04-08T03:23:14.787Z,59.11
2018-04-08T03:25:43.103Z,59.02
2018-04-08T03:28:11.381Z,59.02
2018-04-08T03:30:39.669Z,59.07
2018-04-08T03:33:07.939Z,59.68
2018-04-08T03:35:36.227Z,59.99
2018-04-08T03:38:05.546Z,59.83
2018-04-08T03:40:33.844Z,60.08
2018-04-08T03:43:02.099Z,60.26
2018-04-08T03:45:30.409Z,60.06
2018-04-08T03:47:58.691Z,60.15
2018-04-08T03:50:27.064Z,60.16
2018-04-08T03:52:55.323Z,60.25
2018-04-08T03:55:23.667Z,60.88
2018-04-08T03:57:51.906Z,60.78
2018-04-08T04:00:20.206Z,60.96
2018-04-08T04:02:48.505Z,60.83
2018-04-08T04:05:16.800Z,60.69
2018-04-08T04:07:45.107Z,60.61
2018-04-08T04:10:13.383Z,60.68
2018-04-08T04:12:41.699Z,60.81
2018-04-08T04:15:09.971Z,61.14
2018-04-08T04:17:38.260Z,61.51
2018-04-08T04:20:18.371Z,61.59
2018-04-08T04:22:58.488Z,61.69
2018-04-08T04:28:30.807Z,61.72
2018-04-08T04:30:59.064Z,61.83
2018-04-08T04:33:27.400Z,61.83
2018-04-08T04:35:55.647Z,62.17
2018-04-08T04:38:23.976Z,62.39
2018-04-08T04:40:52.213Z,62.43
2018-04-08T04:43:20.516Z,62.24
2018-04-08T04:45:48.792Z,62.66
2018-04-08T04:48:17.088Z,62.61
2018-04-08T04:50:45.352Z,62.61
2018-04-08T04:53:13.636Z,62.48
2018-04-08T04:55:41.915Z,62.42
2018-04-08T04:58:10.221Z,62.52
2018-04-08T05:00:38.514Z,62.98
2018-04-08T05:03:07.111Z,62.97
2018-04-08T05:05:35.380Z,63.03
2018-04-08T05:08:03.687Z,62.90
2018-04-08T05:10:31.940Z,62.75
2018-04-08T05:13:00.250Z,62.54
2018-04-08T05:15:28.517Z,62.95
2018-04-08T05:17:56.803Z,62.93
2018-04-08T05:20:25.085Z,63.18
2018-04-08T05:22:53.376Z,63.33
2018-04-08T05:25:21.648Z,63.61
2018-04-08T05:27:49.953Z,63.74
2018-04-08T05:30:18.902Z,63.41
2018-04-08T05:32:47.203Z,63.70
2018-04-08T05:35:15.513Z,63.94
2018-04-08T05:37:43.781Z,63.60
2018-04-08T05:40:12.086Z,63.52
2018-04-08T05:42:40.350Z,63.17
2018-04-08T05:45:08.650Z,63.19
2018-04-08T05:47:36.932Z,63.37
2018-04-08T05:50:05.235Z,63.16
2018-04-08T05:52:33.510Z,63.16
2018-04-08T05:55:01.816Z,63.04
2018-04-08T05:57:30.077Z,62.91
2018-04-08T05:59:58.382Z,63.20
2018-04-08T06:02:26.658Z,63.25
2018-04-08T06:04:54.976Z,62.77
2018-04-08T06:07:23.237Z,62.29
2018-04-08T06:09:51.534Z,62.25
2018-04-08T06:12:19.819Z,62.15
2018-04-08T06:14:48.115Z,62.36
2018-04-08T06:17:16.373Z,62.03
2018-04-08T06:19:44.649Z,61.76
2018-04-08T06:22:12.933Z,61.60
2018-04-08T06:24:41.222Z,61.10
2018-04-08T06:27:09.480Z,60.29
2018-04-08T06:29:37.744Z,60.17
2018-04-08T06:32:06.058Z,59.77
2018-04-08T06:34:34.308Z,59.99
2018-04-08T06:37:02.587Z,60.03
2018-04-08T06:39:30.848Z,60.46
2018-04-08T06:41:59.140Z,59.65
2018-04-08T06:44:27.411Z,58.80
2018-04-08T06:46:55.707Z,58.23
2018-04-08T06:49:23.993Z,57.09
2018-04-08T06:51:52.291Z,56.97
2018-04-08T06:54:20.563Z,57.10
2018-04-08T06:56:48.859Z,56.93
2018-04-08T06:59:17.152Z,56.47
2018-04-08T07:01:45.443Z,55.95
2018-04-08T07:04:13.712Z,56.02
2018-04-08T07:06:42.057Z,55.83
2018-04-08T07:09:10.319Z,55.12
2018-04-08T07:11:38.626Z,54.63
2018-04-08T07:14:06.883Z,54.60
2018-04-08T07:16:35.188Z,54.57
2018-04-08T07:19:03.450Z,54.28
2018-04-08T07:21:31.768Z,53.95
2018-04-08T07:24:00.051Z,53.37
2018-04-08T07:26:28.347Z,53.22
2018-04-08T07:28:56.655Z,52.87
2018-04-08T07:31:24.923Z,52.64
2018-04-08T07:33:53.244Z,52.36
2018-04-08T07:36:21.518Z,52.22
2018-04-08T07:38:49.795Z,51.93
2018-04-08T07:41:18.067Z,51.74
2018-04-08T07:43:46.379Z,51.36
2018-04-08T07:46:14.635Z,50.98
2018-04-08T07:48:42.928Z,50.52
2018-04-08T07:51:11.200Z,50.48
2018-04-08T07:53:39.493Z,50.49
2018-04-08T07:56:07.751Z,50.14
2018-04-08T07:58:36.061Z,49.21
2018-04-08T08:01:04.444Z,49.10
2018-04-08T08:03:32.735Z,48.35
2018-04-08T08:06:00.997Z,47.86
2018-04-08T08:08:29.324Z,47.27
2018-04-08T08:10:57.592Z,47.18
2018-04-08T08:13:25.929Z,46.18
2018-04-08T08:15:54.164Z,46.09
2018-04-08T08:18:22.699Z,45.47
2018-04-08T08:20:50.978Z,45.26
2018-04-08T08:23:19.268Z,44.94
2018-04-08T08:25:47.543Z,44.52
2018-04-08T08:28:15.848Z,45.07
2018-04-08T08:30:44.111Z,44.95
2018-04-08T08:33:12.418Z,45.19
2018-04-08T08:35:40.740Z,44.87
2018-04-08T08:38:08.968Z,44.63
2018-04-08T08:40:37.275Z,44.43
2018-04-08T08:43:05.556Z,44.50
2018-04-08T08:45:33.862Z,44.18
2018-04-08T08:48:02.366Z,43.35
2018-04-08T08:50:30.660Z,43.01
2018-04-08T08:52:58.927Z,42.20
2018-04-08T08:55:27.244Z,42.15
2018-04-08T08:57:55.555Z,41.95
2018-04-08T09:00:23.913Z,41.88
2018-04-08T09:02:52.152Z,40.88
2018-04-08T09:05:20.571Z,41.34
2018-04-08T09:07:48.862Z,40.61
2018-04-08T09:10:17.155Z,40.55
2018-04-08T09:12:45.444Z,40.20
2018-04-08T09:15:13.739Z,40.58
2018-04-08T09:17:42.024Z,40.48
2018-04-08T09:20:26.980Z,40.25
2018-04-08T09:25:56.501Z,39.39
2018-04-08T09:28:24.849Z,38.79
2018-04-08T09:30:53.129Z,38.60
2018-04-08T09:33:21.404Z,38.22
2018-04-08T09:35:49.753Z,38.40
2018-04-08T09:38:18.024Z,37.65
2018-04-08T09:40:46.327Z,38.03
2018-04-08T09:43:14.616Z,37.84
2018-04-08T09:45:42.915Z,37.54
2018-04-08T09:48:11.186Z,37.01
2018-04-08T09:50:39.539Z,36.58
2018-04-08T09:53:07.818Z,36.38
2018-04-08T09:55:36.087Z,36.27
2018-04-08T09:58:05.200Z,35.81
2018-04-08T10:00:35.149Z,35.55
2018-04-08T10:03:04.911Z,35.66
2018-04-08T10:05:33.303Z,34.70
2018-04-08T10:08:01.564Z,34.88
2018-04-08T10:10:29.865Z,34.05
2018-04-08T10:12:58.211Z,34.36
2018-04-08T10:15:26.473Z,33.91
2018-04-08T10:17:54.813Z,33.30
2018-04-08T10:20:23.071Z,33.28
2018-04-08T10:22:51.406Z,33.49
2018-04-08T10:25:20.172Z,33.39
2018-04-08T10:27:48.478Z,33.08
2018-04-08T10:30:16.805Z,32.14
2018-04-08T10:32:45.049Z,32.53
2018-04-08T10:35:13.327Z,32.14
2018-04-08T10:37:41.626Z,32.19
2018-04-08T10:40:09.924Z,32.04
2018-04-08T10:42:38.266Z,31.61
2018-04-08T10:45:06.547Z,31.66
2018-04-08T10:47:34.868Z,31.10
2018-04-08T10:50:03.176Z,31.07
2018-04-08T10:52:31.491Z,30.56
2018-04-08T10:54:59.846Z,29.48
2018-04-08T10:57:28.146Z,29.99
2018-04-08T10:59:56.419Z,29.73
2018-04-08T11:02:24.695Z,30.24
2018-04-08T11:04:53.045Z,29.84
2018-04-08T11:07:21.247Z,29.87
2018-04-08T11:09:49.581Z,29.45
2018-04-08T11:12:17.859Z,29.03
2018-04-08T11:14:46.171Z,28.75
2018-04-08T11:17:14.450Z,28.02
2018-04-08T11:19:42.737Z,28.09
2018-04-08T11:22:11.011Z,27.91
2018-04-08T11:24:39.338Z,27.88
2018-04-08T11:27:07.604Z,29.78
2018-04-08T11:29:35.933Z,30.70
2018-04-08T11:32:04.951Z,31.04
2018-04-08T11:34:33.252Z,29.41
2018-04-08T11:37:01.515Z,28.85
2018-04-08T11:39:29.817Z,29.95
2018-04-08T11:41:58.125Z,29.82
2018-04-08T11:44:26.514Z,28.71
2018-04-08T11:46:54.813Z,28.52
2018-04-08T11:49:23.181Z,29.00
2018-04-08T11:51:51.450Z,27.76
2018-04-08T11:54:19.731Z,26.96
2018-04-08T11:56:48.052Z,26.24
2018-04-08T11:59:16.311Z,25.94
2018-04-08T12:01:44.596Z,25.06
2018-04-08T12:04:12.875Z,25.30
2018-04-08T12:06:41.480Z,24.57
2018-04-08T12:09:10.031Z,25.30
2018-04-08T12:11:38.291Z,25.33
2018-04-08T12:14:06.559Z,24.68
2018-04-08T12:16:35.548Z,26.21
2018-04-08T12:19:03.833Z,26.85
2018-04-08T12:21:32.118Z,24.67
2018-04-08T12:24:00.422Z,24.32
2018-04-08T12:26:38.677Z,24.44
2018-04-08T12:29:06.975Z,25.52
2018-04-08T12:31:35.289Z,26.61
2018-04-08T12:34:03.549Z,25.30
2018-04-08T12:36:31.872Z,24.95
2018-04-08T12:39:00.159Z,26.47
2018-04-08T12:41:28.433Z,26.93
2018-04-08T12:43:56.716Z,26.94
2018-04-08T12:46:25.032Z,25.48
2018-04-08T12:48:53.311Z,25.01
2018-04-08T12:51:21.613Z,25.70
2018-04-08T12:53:49.906Z,27.10
2018-04-08T12:56:18.239Z,26.97
2018-04-08T12:58:46.504Z,26.10
2018-04-08T13:01:14.844Z,24.21
2018-04-08T13:03:43.129Z,23.84
2018-04-08T13:06:11.403Z,23.67
2018-04-08T13:08:39.691Z,23.78
2018-04-08T13:11:07.985Z,22.83
2018-04-08T13:13:36.291Z,22.05
2018-04-08T13:16:04.617Z,22.98
2018-04-08T13:18:32.915Z,22.37
2018-04-08T13:21:01.208Z,22.87
2018-04-08T13:23:29.528Z,22.84
2018-04-08T13:25:57.833Z,21.66
2018-04-08T13:28:26.117Z,22.11
2018-04-08T13:30:54.388Z,21.96
2018-04-08T13:33:22.687Z,21.95
2018-04-08T13:35:50.965Z,21.80
2018-04-08T13:38:19.288Z,21.15
2018-04-08T13:40:47.625Z,21.78
2018-04-08T13:43:15.977Z,22.02
2018-04-08T13:45:44.244Z,21.55
2018-04-08T13:48:12.530Z,20.80
2018-04-08T13:50:40.876Z,20.74
2018-04-08T13:53:09.235Z,20.90
2018-04-08T13:55:37.560Z,21.34
2018-04-08T13:58:05.862Z,21.20
2018-04-08T14:00:34.157Z,21.55
2018-04-08T14:03:02.432Z,21.43
2018-04-08T14:05:30.735Z,20.60
2018-04-08T14:07:59.019Z,20.44
2018-04-08T14:10:27.843Z,21.15
2018-04-08T14:12:56.110Z,20.70
2018-04-08T14:15:24.486Z,20.75
2018-04-08T14:17:52.762Z,20.96
2018-04-08T14:20:21.074Z,21.00
2018-04-08T14:22:49.348Z,21.09
2018-04-08T14:25:17.688Z,21.06
2018-04-08T14:27:45.973Z,20.80
2018-04-08T14:30:14.320Z,20.89
2018-04-08T14:32:42.619Z,21.14
2018-04-08T14:35:10.913Z,21.17
2018-04-08T14:37:39.181Z,21.31
2018-04-08T14:40:07.483Z,21.12
2018-04-08T14:42:35.783Z,21.07
2018-04-08T14:45:04.082Z,21.12
2018-04-08T14:47:32.394Z,21.25
2018-04-08T14:50:00.655Z,20.89
2018-04-08T14:52:28.934Z,21.29
2018-04-08T14:54:57.262Z,21.24
2018-04-08T14:57:25.663Z,21.16
2018-04-08T14:59:54.029Z,21.59
2018-04-08T15:02:22.338Z,21.77
2018-04-08T15:04:50.660Z,21.47
2018-04-08T15:07:18.972Z,21.10
2018-04-08T15:09:47.221Z,21.56
2018-04-08T15:12:15.532Z,22.09
2018-04-08T15:14:44.008Z,22.20
2018-04-08T15:17:12.302Z,22.02
2018-04-08T15:19:40.598Z,21.97
2018-04-08T15:22:09.032Z,22.07
2018-04-08T15:24:37.303Z,22.40
2018-04-08T15:27:05.730Z,22.27
2018-04-08T15:29:34.028Z,22.68
2018-04-08T15:32:02.315Z,23.33
2018-04-08T15:34:30.587Z,23.20
2018-04-08T15:36:58.887Z,22.98
2018-04-08T15:39:27.163Z,23.33
2018-04-08T15:41:55.514Z,23.59
2018-04-08T15:44:23.753Z,23.53
2018-04-08T15:46:52.048Z,24.26
2018-04-08T15:49:20.335Z,24.76
2018-04-08T15:51:48.650Z,25.60
2018-04-08T15:54:16.943Z,26.24
2018-04-08T15:56:45.249Z,26.31
2018-04-08T15:59:13.508Z,26.37
2018-04-08T16:01:41.763Z,26.28
2018-04-08T16:04:10.071Z,26.16
2018-04-08T16:06:38.365Z,26.41
2018-04-08T16:09:06.655Z,26.69
2018-04-08T16:11:34.932Z,27.22
2018-04-08T16:14:04.152Z,27.96
2018-04-08T16:16:32.415Z,28.26
2018-04-08T16:19:00.701Z,27.70
2018-04-08T16:21:28.979Z,27.33
2018-04-08T16:23:57.265Z,27.22
2018-04-08T16:26:25.539Z,27.08
2018-04-08T16:28:53.868Z,27.05
2018-04-08T16:31:22.225Z,26.78
2018-04-08T16:33:50.504Z,26.79
2018-04-08T16:36:18.795Z,26.81
2018-04-08T16:38:47.100Z,26.75
2018-04-08T16:41:15.397Z,27.07
2018-04-08T16:43:43.670Z,27.39
2018-04-08T16:46:11.999Z,28.39
2018-04-08T16:48:40.274Z,29.20
2018-04-08T16:51:08.551Z,29.33
2018-04-08T16:53:36.831Z,29.68
2018-04-08T16:56:05.176Z,29.70
2018-04-08T16:58:33.443Z,29.80
2018-04-08T17:01:01.780Z,29.71
2018-04-08T17:03:30.058Z,29.87
2018-04-08T17:05:58.340Z,29.96
2018-04-08T17:08:26.637Z,30.13
2018-04-08T17:10:54.960Z,30.50
2018-04-08T17:13:23.239Z,31.02
2018-04-08T17:15:51.560Z,31.34
2018-04-08T17:18:19.824Z,31.34
2018-04-08T17:20:48.134Z,31.61
2018-04-08T17:23:16.397Z,31.75
2018-04-08T17:25:44.784Z,31.80
2018-04-08T17:28:13.017Z,31.90
2018-04-08T17:30:41.502Z,32.11
2018-04-08T17:33:09.824Z,32.26
2018-04-08T17:35:38.156Z,32.41
2018-04-08T17:38:06.471Z,32.48
2018-04-08T17:40:34.745Z,32.59
2018-04-08T17:43:03.034Z,32.97
2018-04-08T17:45:31.299Z,33.00
2018-04-08T17:47:59.594Z,33.21
2018-04-08T17:50:27.900Z,33.32
2018-04-08T17:52:56.217Z,33.69
2018-04-08T17:55:24.547Z,33.77
2018-04-08T17:57:52.864Z,33.97
2018-04-08T18:00:21.177Z,34.25
2018-04-08T18:02:49.494Z,34.35
2018-04-08T18:05:17.765Z,34.60
2018-04-08T18:07:46.081Z,34.90
2018-04-08T18:10:14.352Z,35.03
2018-04-08T18:12:42.658Z,35.49
2018-04-08T18:15:10.905Z,35.75
2018-04-08T18:17:39.205Z,35.90
2018-04-08T18:20:07.461Z,35.98
2018-04-08T18:22:35.772Z,35.95
2018-04-08T18:25:04.089Z,36.05
2018-04-08T18:27:32.352Z,36.30
2018-04-08T18:30:00.931Z,36.27
2018-04-08T18:32:29.209Z,36.56
2018-04-08T18:34:57.494Z,36.80
2018-04-08T18:37:25.764Z,37.16
2018-04-08T18:39:54.060Z,37.14
2018-04-08T18:42:22.312Z,37.27
2018-04-08T18:44:50.627Z,37.51
2018-04-08T18:47:18.887Z,37.84
2018-04-08T18:49:47.198Z,38.00
2018-04-08T18:52:15.512Z,38.26
2018-04-08T18:54:43.820Z,38.51
2018-04-08T18:57:12.088Z,38.82
2018-04-08T18:59:40.392Z,39.49
2018-04-08T19:02:08.712Z,39.80
2018-04-08T19:04:37.000Z,40.42
2018-04-08T19:07:05.268Z,40.45
2018-04-08T19:09:33.558Z,40.44
2018-04-08T19:12:01.988Z,40.90
2018-04-08T19:14:35.834Z,40.87
2018-04-08T19:17:04.042Z,41.24
2018-04-08T19:19:32.341Z,41.16
2018-04-08T19:22:00.612Z,41.22
2018-04-08T19:24:28.896Z,41.36
2018-04-08T19:26:57.176Z,41.81
2018-04-08T19:29:25.448Z,42.18
2018-04-08T19:31:53.754Z,42.00
2018-04-08T19:34:22.033Z,42.13
2018-04-08T19:36:50.339Z,42.30
2018-04-08T19:39:18.584Z,42.88
2018-04-08T19:41:46.873Z,43.03
2018-04-08T19:44:15.133Z,43.46
2018-04-08T19:46:43.445Z,43.96
2018-04-08T19:49:11.692Z,44.01
2018-04-08T19:51:39.981Z,44.56
2018-04-08T19:54:08.240Z,44.68
2018-04-08T19:56:36.522Z,44.88
2018-04-08T19:59:04.782Z,44.84
2018-04-08T20:01:33.203Z,45.13
2018-04-08T20:04:01.441Z,44.99
2018-04-08T20:06:29.729Z,45.69
2018-04-08T20:08:58.024Z,45.60
2018-04-08T20:11:26.314Z,45.70
2018-04-08T20:13:54.580Z,45.80
2018-04-08T20:16:22.873Z,45.95
2018-04-08T20:18:51.440Z,46.02
2018-04-08T20:21:19.860Z,46.05
2018-04-08T20:23:48.136Z,46.17
2018-04-08T20:26:16.416Z,46.73
2018-04-08T20:28:44.720Z,46.89
2018-04-08T20:31:12.964Z,47.20
2018-04-08T20:33:41.261Z,47.28
2018-04-08T20:36:09.520Z,47.66
2018-04-08T20:38:37.852Z,47.54
2018-04-08T20:41:06.129Z,47.46
2018-04-08T20:43:34.416Z,47.52
2018-04-08T20:46:02.680Z,47.73
2018-04-08T20:48:30.970Z,47.75
2018-04-08T20:50:59.231Z,47.69
2018-04-08T20:53:27.554Z,48.27
2018-04-08T20:55:56.515Z,48.44
2018-04-08T20:58:24.867Z,48.80
2018-04-08T21:00:53.127Z,48.98
2018-04-08T21:03:21.497Z,49.51
2018-04-08T21:05:49.711Z,49.38
2018-04-08T21:08:17.999Z,49.47
2018-04-08T21:10:46.292Z,55.16
2018-04-08T21:13:14.617Z,54.96
2018-04-08T21:15:42.899Z,52.25
2018-04-08T21:18:11.381Z,51.41
2018-04-08T21:20:39.664Z,49.58
2018-04-08T21:23:07.964Z,46.90
2018-04-08T21:25:36.312Z,48.66
2018-04-08T21:28:05.553Z,47.93
2018-04-08T21:30:33.898Z,48.00
2018-04-08T21:33:02.150Z,47.90
2018-04-08T21:35:30.415Z,47.01
2018-04-08T21:37:58.708Z,45.42
2018-04-08T21:40:27.005Z,46.72
2018-04-08T21:42:55.292Z,46.18
2018-04-08T21:45:23.603Z,45.61
2018-04-08T21:47:51.867Z,45.23
2018-04-08T21:50:21.076Z,45.22
2018-04-08T21:52:49.336Z,44.76
2018-04-08T21:55:17.643Z,46.72
2018-04-08T21:57:45.945Z,48.47
2018-04-08T22:00:14.228Z,50.09
2018-04-08T22:02:42.500Z,50.49
2018-04-08T22:05:10.807Z,51.32
2018-04-08T22:07:39.063Z,51.72
2018-04-08T22:10:07.368Z,51.75
2018-04-08T22:12:35.638Z,52.44
2018-04-08T22:15:04.781Z,52.73
2018-04-08T22:17:33.074Z,52.79
2018-04-08T22:20:01.335Z,52.91
2018-04-08T22:22:29.922Z,53.26
2018-04-08T22:24:58.208Z,53.70
2018-04-08T22:27:26.503Z,53.60
2018-04-08T22:29:54.780Z,53.73
2018-04-08T22:32:23.058Z,53.54
2018-04-08T22:34:51.892Z,53.82
2018-04-08T22:37:20.183Z,54.09
2018-04-08T22:39:48.444Z,54.34
2018-04-08T22:42:16.752Z,54.61
2018-04-08T22:44:45.017Z,54.79
2018-04-08T22:47:13.307Z,54.86
2018-04-08T22:49:41.579Z,54.88
2018-04-08T22:52:09.847Z,55.21
2018-04-08T22:54:38.139Z,55.38
2018-04-08T22:57:06.433Z,55.42
2018-04-08T22:59:34.755Z,55.27
2018-04-08T23:02:03.280Z,55.30
2018-04-08T23:04:31.556Z,55.19
2018-04-08T23:06:59.911Z,55.14
2018-04-08T23:09:28.484Z,55.53
2018-04-08T23:11:56.818Z,55.35
2018-04-08T23:14:25.081Z,55.76
2018-04-08T23:16:53.349Z,55.69
2018-04-08T23:19:21.646Z,55.97
2018-04-08T23:21:49.906Z,55.99
2018-04-08T23:24:18.232Z,56.23
2018-04-08T23:26:46.511Z,55.97
2018-04-08T23:29:14.811Z,56.34
2018-04-08T23:31:43.101Z,56.28
2018-04-08T23:34:11.375Z,56.26
2018-04-08T23:36:39.654Z,56.80
2018-04-08T23:39:07.948Z,57.14
2018-04-08T23:41:36.205Z,56.81
2018-04-08T23:44:04.967Z,57.41
2018-04-08T23:46:33.253Z,57.54
2018-04-08T23:49:01.559Z,57.87
2018-04-08T23:51:29.816Z,57.89
2018-04-08T23:53:58.103Z,58.28
2018-04-08T23:56:26.372Z,57.91
2018-04-08T23:58:54.660Z,58.13
